createdAt,value
2023-03-01T07:29:10.788Z,0.90
2023-03-01T07:39:18.658Z,2.00
2023-03-01T07:49:26.101Z,1.18
2023-03-01T07:59:32.859Z,3.18
2023-03-01T08:09:39.844Z,5.04
2023-03-01T08:19:45.397Z,5.58
2023-03-01T08:29:51.931Z,6.01
2023-03-01T08:39:58.350Z,5.70
2023-03-01T08:50:05.365Z,7.28
2023-03-01T09:00:13.500Z,7.08
2023-03-01T09:10:20.413Z,7.69
2023-03-01T09:20:26.750Z,7.78
2023-03-01T09:30:33.501Z,9.16
2023-03-01T09:40:44.738Z,8.29
2023-03-01T09:50:52.182Z,8.12
2023-03-01T10:01:02.176Z,9.17
2023-03-01T10:11:27.096Z,9.02
2023-03-01T10:21:34.164Z,8.89
2023-03-01T10:31:42.913Z,9.27
2023-03-01T10:42:06.846Z,9.50
2023-03-01T10:52:22.837Z,9.62
2023-03-01T11:02:34.823Z,9.28
2023-03-01T11:12:41.421Z,9.34
2023-03-01T11:22:51.544Z,8.12
2023-03-01T11:33:03.827Z,10.04
2023-03-01T11:43:37.689Z,8.29
2023-03-01T11:53:56.895Z,8.17
2023-03-01T12:04:33.345Z,10.14
2023-03-01T12:14:51.963Z,10.15
2023-03-01T12:25:07.428Z,9.82
2023-03-01T12:35:28.736Z,9.91
2023-03-01T12:45:47.506Z,9.32
2023-03-01T12:56:07.208Z,8.85
2023-03-01T13:06:20.968Z,8.74
2023-03-01T13:16:42.256Z,8.98
2023-03-01T13:27:20.659Z,8.90
2023-03-01T13:37:32.687Z,8.90
2023-03-01T13:47:39.797Z,9.01
2023-03-01T13:57:55.848Z,9.08
2023-03-01T14:08:02.137Z,8.62
2023-03-01T14:18:17.344Z,8.19
2023-03-01T14:28:28.993Z,7.72
2023-03-01T14:38:43.962Z,8.19
2023-03-01T14:48:58.774Z,8.11
2023-03-01T14:59:05.096Z,7.83
2023-03-01T15:09:17.319Z,7.79
2023-03-01T15:19:26.255Z,7.43
2023-03-01T15:29:35.614Z,7.35
2023-03-01T15:39:45.317Z,6.97
2023-03-01T15:49:55.872Z,6.71
2023-03-01T16:00:02.693Z,6.45
2023-03-01T16:10:09.676Z,6.14
2023-03-01T16:20:27.911Z,5.85
2023-03-01T16:30:37.449Z,5.47
2023-03-01T16:40:49.644Z,5.06
2023-03-01T16:51:02.492Z,4.52
2023-03-01T17:01:20.435Z,4.12
2023-03-01T17:11:25.818Z,3.49
2023-03-01T17:21:33.052Z,3.12
2023-03-01T17:31:39.625Z,3.03
2023-03-01T17:41:46.002Z,2.66
2023-03-01T17:51:52.429Z,2.44
2023-03-01T18:01:59.842Z,2.06
2023-03-01T18:12:06.236Z,1.79
2023-03-01T18:22:12.756Z,1.33
2023-03-01T18:32:19.211Z,0.75
2023-03-01T18:42:25.966Z,1.31
2023-03-01T18:52:32.241Z,1.25
2023-03-01T19:02:38.613Z,1.15
2023-03-01T19:12:45.340Z,1.00
2023-03-01T19:22:51.727Z,0.97
2023-03-01T19:32:58.147Z,0.63
2023-03-01T19:43:04.551Z,0.35
2023-03-01T19:53:10.873Z,0.34
2023-03-01T20:03:17.536Z,0.15
2023-03-01T20:13:24.331Z,-0.41
2023-03-01T20:23:30.787Z,-0.16
2023-03-01T20:33:37.144Z,-0.52
2023-03-01T20:43:44.230Z,-0.46
2023-03-01T20:53:50.723Z,-0.57
2023-03-01T21:03:57.362Z,-0.66
2023-03-01T21:14:05.051Z,-0.74
2023-03-01T21:24:13.343Z,-0.97
2023-03-01T21:34:19.744Z,-1.45
2023-03-01T21:44:27.760Z,-1.51
2023-03-01T21:54:34.270Z,-1.27
2023-03-01T22:04:42.522Z,-1.45
2023-03-01T22:14:48.846Z,-1.29
2023-03-01T22:24:55.563Z,-1.39
2023-03-01T22:35:01.910Z,-1.37
2023-03-01T22:45:08.716Z,-1.41
2023-03-01T22:55:15.015Z,-1.39
2023-03-01T23:05:21.337Z,-1.53
2023-03-01T23:15:27.667Z,-1.64
2023-03-01T23:25:34.028Z,-1.80
2023-03-01T23:35:40.839Z,-1.84
2023-03-01T23:45:47.277Z,-1.91
2023-03-01T23:55:55.243Z,-1.93
